Time;durP1;ratioP1;P1;durP2;ratioP2;P2;SDS_P1;SDS_P2;PMS_P1;PMS_P2;Temp;Humidity;BMP_temperature;BMP_pressure;BME280_temperature;BME280_humidity;BME280_pressure;Samples;Min_cycle;Max_cycle;Signal;HPM_P1;HPM_P2
2021/06/04 00:01:15;;;;;;;5.63;5.20;;;16.70;99.90;;;;;;5151704;22;20699;-96
2021/06/04 00:03:43;;;;;;;6.00;5.40;;;16.60;99.90;;;;;;4994935;28;20667;-96
2021/06/04 00:06:10;;;;;;;5.00;4.60;;;16.60;99.90;;;;;;5031136;28;20695;-95
2021/06/04 00:08:37;;;;;;;4.77;4.37;;;16.60;99.90;;;;;;5027044;28;20667;-94
2021/06/04 00:11:08;;;;;;;5.07;4.67;;;16.60;99.90;;;;;;5027391;28;20624;-95
2021/06/04 00:13:43;;;;;;;5.30;4.80;;;16.50;99.90;;;;;;5035449;28;20636;-95
2021/06/04 00:16:16;;;;;;;6.00;5.50;;;16.60;99.90;;;;;;5028520;28;20663;-96
2021/06/04 00:18:47;;;;;;;5.57;4.37;;;16.60;99.90;;;;;;5031668;28;20628;-95
2021/06/04 00:44:52;;;;;;;8.60;6.07;;;16.30;99.90;;;;;;5617956;22;20654;-96
2021/06/04 00:47:22;;;;;;;6.83;6.23;;;16.30;99.90;;;;;;5050079;28;20716;-96
2021/06/04 00:49:57;;;;;;;7.03;6.53;;;16.30;99.90;;;;;;5052248;28;20668;-96
2021/06/04 00:52:35;;;;;;;6.43;5.93;;;16.20;99.90;;;;;;5054656;28;20638;-96
2021/06/04 00:55:05;;;;;;;6.80;6.10;;;16.20;99.90;;;;;;5062111;28;20620;-96
2021/06/04 00:57:35;;;;;;;7.37;5.37;;;16.20;99.90;;;;;;5061814;28;20623;-96
2021/06/04 01:00:22;;;;;;;6.80;6.30;;;16.20;99.90;;;;;;5064908;28;20625;-96
2021/06/04 01:02:49;;;;;;;6.40;5.80;;;16.10;99.90;;;;;;5054908;28;20671;-96
2021/06/04 01:05:40;;;;;;;5.10;4.80;;;16.10;99.90;;;;;;5061828;28;20656;-96
2021/06/04 01:08:46;;;;;;;6.10;5.60;;;16.10;99.90;;;;;;5061325;28;20640;-96
2021/06/04 01:11:25;;;;;;;6.03;5.63;;;16.00;99.90;;;;;;5066150;28;20673;-96
2021/06/04 01:14:03;;;;;;;5.80;5.40;;;16.00;99.90;;;;;;5049881;28;20652;-96
2021/06/04 01:16:36;;;;;;;5.63;5.23;;;16.00;99.90;;;;;;5052524;28;21146;-96
2021/06/04 01:19:25;;;;;;;4.90;4.60;;;15.90;99.90;;;;;;5048440;28;20633;-95
2021/06/04 01:21:57;;;;;;;5.90;5.50;;;15.90;99.90;;;;;;5047648;28;21039;-96
2021/06/04 01:25:00;;;;;;;6.43;5.93;;;16.00;99.90;;;;;;5053079;28;20650;-96
2021/06/04 01:27:50;;;;;;;6.87;6.37;;;16.00;99.90;;;;;;5054815;28;20752;-96
2021/06/04 01:30:38;;;;;;;5.97;5.57;;;15.90;99.90;;;;;;5048983;28;20744;-94
2021/06/04 01:59:14;;;;;;;7.60;6.90;;;15.70;99.90;;;;;;5214696;22;20715;-96
2021/06/04 02:01:45;;;;;;;7.23;6.63;;;15.70;99.90;;;;;;5037820;28;20718;-95
2021/06/04 02:04:21;;;;;;;6.07;5.57;;;15.70;99.90;;;;;;5034270;28;20652;-96
2021/06/04 02:06:50;;;;;;;6.53;6.03;;;15.70;99.90;;;;;;5039407;28;20632;-95
2021/06/04 02:09:20;;;;;;;8.03;5.97;;;15.60;99.90;;;;;;5045547;28;20635;-94
2021/06/04 02:11:47;;;;;;;7.07;6.47;;;15.50;99.90;;;;;;5047091;28;20679;-96
2021/06/04 02:14:22;;;;;;;7.47;6.87;;;15.60;99.90;;;;;;5040190;28;20639;-96
2021/06/04 02:17:12;;;;;;;9.70;6.70;;;15.50;99.90;;;;;;5041098;28;20634;-96
2021/06/04 02:19:50;;;;;;;8.53;7.40;;;15.60;99.90;;;;;;5049276;28;20603;-96
2021/06/04 02:22:22;;;;;;;7.53;6.93;;;15.50;99.90;;;;;;5040395;28;20600;-96
2021/06/04 02:25:21;;;;;;;7.97;7.27;;;15.40;99.90;;;;;;5047956;28;20659;-96
2021/06/04 02:27:51;;;;;;;7.27;6.57;;;15.50;99.90;;;;;;5045716;28;20626;-96
2021/06/04 02:30:34;;;;;;;7.03;6.53;;;15.40;99.90;;;;;;5379733;22;20684;-95
2021/06/04 02:33:06;;;;;;;6.10;5.63;;;15.40;99.90;;;;;;5063198;28;20623;-96
2021/06/04 02:35:40;;;;;;;6.90;6.37;;;15.40;99.90;;;;;;5067529;28;20664;-96
2021/06/04 02:38:14;;;;;;;7.33;6.63;;;15.40;99.90;;;;;;5061965;28;20629;-96
2021/06/04 02:40:45;;;;;;;7.07;6.57;;;15.40;99.90;;;;;;5038490;28;20645;-95
2021/06/04 02:43:15;;;;;;;7.83;7.03;;;15.50;99.90;;;;;;5040806;28;20679;-95
2021/06/04 02:46:00;;;;;;;6.27;5.67;;;15.40;99.90;;;;;;5036178;28;20632;-95
2021/06/04 02:48:30;;;;;;;6.60;6.00;;;15.30;99.90;;;;;;5041106;28;20650;-96
2021/06/04 02:51:19;;;;;;;7.30;6.60;;;15.30;99.90;;;;;;5039809;28;20631;-96
2021/06/04 02:56:25;;;;;;;7.00;6.40;;;15.30;99.90;;;;;;6005745;22;20595;-93
2021/06/04 02:58:56;;;;;;;7.30;6.73;;;15.30;99.90;;;;;;5023422;28;21047;-94
2021/06/04 03:01:26;;;;;;;7.73;7.10;;;15.20;99.90;;;;;;5020127;28;20647;-92
2021/06/04 03:03:58;;;;;;;8.17;7.40;;;15.30;99.90;;;;;;5022406;28;20685;-94
2021/06/04 03:06:29;;;;;;;7.53;6.87;;;15.30;99.90;;;;;;5019995;28;21075;-94
2021/06/04 03:09:00;;;;;;;8.17;7.47;;;15.30;99.90;;;;;;5018006;28;20634;-94
2021/06/04 03:11:29;;;;;;;8.57;7.87;;;15.30;99.90;;;;;;5024358;28;21154;-93
2021/06/04 03:13:57;;;;;;;8.63;8.03;;;15.20;99.90;;;;;;5023173;28;20667;-93
2021/06/04 03:16:29;;;;;;;9.30;8.47;;;15.30;99.90;;;;;;5020611;28;20654;-94
2021/06/04 03:19:02;;;;;;;8.30;7.70;;;15.20;99.90;;;;;;5018734;28;21178;-94
2021/06/04 03:21:33;;;;;;;8.97;8.10;;;15.20;99.90;;;;;;5019823;28;20630;-95
2021/06/04 03:24:03;;;;;;;8.10;7.50;;;15.20;99.90;;;;;;5023494;28;20686;-93
2021/06/04 03:26:31;;;;;;;7.13;6.63;;;15.10;99.90;;;;;;5022462;28;20627;-95
2021/06/04 03:29:05;;;;;;;7.70;7.00;;;15.10;99.90;;;;;;5033955;28;21166;-94
2021/06/04 03:31:42;;;;;;;7.33;6.80;;;15.00;99.90;;;;;;5026129;28;20623;-94
2021/06/04 03:34:09;;;;;;;8.27;6.60;;;15.10;99.90;;;;;;5025331;28;20647;-92
2021/06/04 03:36:39;;;;;;;7.80;7.20;;;15.10;99.90;;;;;;5024994;28;20626;-92
2021/06/04 03:39:19;;;;;;;7.47;6.87;;;15.10;99.90;;;;;;5018677;28;20665;-93
2021/06/04 03:41:50;;;;;;;7.10;6.50;;;15.10;99.90;;;;;;5016998;28;20679;-93
2021/06/04 03:44:20;;;;;;;6.73;6.23;;;15.20;99.90;;;;;;5021050;28;21334;-92
2021/06/04 03:46:48;;;;;;;7.10;6.60;;;15.20;99.90;;;;;;5022989;28;21188;-94
2021/06/04 03:49:17;;;;;;;8.10;7.30;;;15.30;99.90;;;;;;5025020;28;20623;-94
2021/06/04 03:51:46;;;;;;;7.43;6.83;;;15.30;99.90;;;;;;5046074;28;20599;-94
2021/06/04 03:54:17;;;;;;;7.40;6.90;;;15.40;99.90;;;;;;5050242;28;20710;-93
2021/06/04 03:56:45;;;;;;;12.97;7.63;;;15.50;99.90;;;;;;5044351;28;20635;-94
2021/06/04 03:59:17;;;;;;;7.43;6.93;;;15.50;99.90;;;;;;5048261;28;20637;-93
2021/06/04 04:01:49;;;;;;;8.33;7.73;;;15.60;99.90;;;;;;5051351;28;20634;-93
2021/06/04 04:04:17;;;;;;;6.73;5.87;;;15.60;99.90;;;;;;5044363;28;20716;-95
2021/06/04 04:06:46;;;;;;;7.30;6.40;;;15.70;99.90;;;;;;5032007;28;20662;-94
2021/06/04 04:09:16;;;;;;;7.03;6.33;;;15.70;99.90;;;;;;5025495;28;21713;-95
2021/06/04 04:11:45;;;;;;;9.50;6.87;;;15.70;99.90;;;;;;5029995;28;20701;-94
2021/06/04 04:14:11;;;;;;;7.00;6.30;;;15.80;99.90;;;;;;5022303;28;21073;-94
2021/06/04 04:16:40;;;;;;;6.97;6.03;;;15.80;99.90;;;;;;5025054;28;20634;-94
2021/06/04 04:19:09;;;;;;;7.10;5.90;;;15.90;99.90;;;;;;5024628;28;20629;-94
2021/06/04 04:21:37;;;;;;;7.30;6.70;;;15.90;99.90;;;;;;5021515;28;20630;-94
2021/06/04 04:24:17;;;;;;;6.77;6.27;;;15.90;99.90;;;;;;5019530;28;20675;-94
2021/06/04 04:26:45;;;;;;;6.83;6.20;;;16.10;99.90;;;;;;5026121;28;21050;-94
2021/06/04 04:29:12;;;;;;;6.47;5.97;;;16.20;99.90;;;;;;5027153;28;20634;-95
2021/06/04 04:31:42;;;;;;;7.30;6.23;;;16.30;99.90;;;;;;5026893;28;20649;-95
2021/06/04 04:34:14;;;;;;;7.90;6.57;;;16.40;99.90;;;;;;5027653;28;20644;-96
2021/06/04 04:36:43;;;;;;;7.30;6.60;;;16.50;99.90;;;;;;5030596;28;20611;-96
2021/06/04 04:39:15;;;;;;;6.33;5.80;;;16.50;99.90;;;;;;5039153;28;20630;-96
2021/06/04 04:41:42;;;;;;;6.77;6.17;;;16.60;99.90;;;;;;5025202;28;20639;-95
2021/06/04 04:44:09;;;;;;;6.77;5.50;;;16.70;99.90;;;;;;5022502;28;21004;-95
2021/06/04 04:46:35;;;;;;;7.03;6.43;;;16.60;99.90;;;;;;5028431;28;20638;-95
2021/06/04 04:49:02;;;;;;;7.47;6.70;;;16.70;99.90;;;;;;5025251;28;20627;-95
2021/06/04 04:51:36;;;;;;;6.67;6.17;;;16.80;99.90;;;;;;5028030;28;20631;-95
2021/06/04 04:54:04;;;;;;;7.67;6.60;;;17.00;99.90;;;;;;5026794;28;21320;-95
2021/06/04 04:56:33;;;;;;;7.13;6.43;;;17.00;99.90;;;;;;5021351;28;20662;-95
2021/06/04 04:59:02;;;;;;;8.00;6.20;;;17.10;99.90;;;;;;5020607;28;21162;-93
2021/06/04 05:01:29;;;;;;;8.03;7.40;;;17.00;99.90;;;;;;5024838;28;20627;-94
2021/06/04 05:03:57;;;;;;;9.67;8.87;;;17.10;99.90;;;;;;5027073;28;20682;-94
2021/06/04 05:06:23;;;;;;;9.60;8.70;;;17.10;99.90;;;;;;5026133;28;20626;-94
2021/06/04 05:08:51;;;;;;;10.17;8.90;;;17.10;99.90;;;;;;5025152;28;21181;-91
2021/06/04 05:11:26;;;;;;;11.47;10.37;;;17.20;99.90;;;;;;5026920;28;20583;-95
2021/06/04 05:16:28;;;;;;;10.30;9.30;;;17.30;99.90;;;;;;5016211;28;20668;-95
2021/06/04 05:44:50;;;;;;;6.83;6.33;;;18.00;99.90;;;;;;5726859;23;20684;-93
2021/06/04 05:47:21;;;;;;;6.73;6.10;;;18.00;99.90;;;;;;5051121;28;20653;-96
2021/06/04 05:49:50;;;;;;;5.87;5.40;;;18.20;99.90;;;;;;5089513;22;21068;-93
2021/06/04 05:52:18;;;;;;;5.97;5.23;;;18.30;99.90;;;;;;5004279;28;20846;-90
2021/06/04 05:54:46;;;;;;;7.60;6.57;;;18.30;99.90;;;;;;5000215;28;20625;-90
2021/06/04 05:57:13;;;;;;;6.63;6.03;;;18.50;99.90;;;;;;5000186;28;20628;-91
2021/06/04 05:59:40;;;;;;;6.00;5.50;;;18.70;99.90;;;;;;5009983;28;21286;-91
2021/06/04 06:02:10;;;;;;;6.50;5.97;;;18.70;99.90;;;;;;5009550;28;21005;-90
2021/06/04 06:04:36;;;;;;;7.50;6.83;;;18.70;99.90;;;;;;5001405;28;20659;-90
2021/06/04 06:07:03;;;;;;;7.63;6.50;;;18.80;99.90;;;;;;5003806;28;21052;-91
2021/06/04 06:09:30;;;;;;;8.30;6.17;;;18.80;99.90;;;;;;5010714;28;20652;-91
2021/06/04 06:11:56;;;;;;;6.80;6.10;;;19.00;99.90;;;;;;5007007;28;20705;-91
2021/06/04 06:14:23;;;;;;;6.30;5.83;;;19.50;99.90;;;;;;5002980;28;20640;-95
2021/06/04 06:16:51;;;;;;;7.13;5.57;;;19.70;99.90;;;;;;5003441;28;20643;-94
2021/06/04 06:19:20;;;;;;;7.40;6.80;;;20.00;99.90;;;;;;5001223;28;21319;-91
2021/06/04 06:21:50;;;;;;;6.17;5.57;;;20.10;99.90;;;;;;5002328;28;20627;-91
2021/06/04 06:24:17;;;;;;;8.07;7.40;;;20.20;99.90;;;;;;5004648;28;20719;-91
2021/06/04 06:26:43;;;;;;;9.33;7.07;;;20.40;99.90;;;;;;5003997;28;20631;-91
2021/06/04 06:29:13;;;;;;;7.00;6.40;;;20.50;99.90;;;;;;5002880;28;20674;-91
2021/06/04 06:31:41;;;;;;;6.67;6.00;;;20.50;99.90;;;;;;5008355;28;21145;-90
2021/06/04 06:34:10;;;;;;;6.73;6.13;;;20.50;99.90;;;;;;5007751;28;21016;-90
2021/06/04 06:36:40;;;;;;;6.70;6.10;;;20.60;99.90;;;;;;5001252;28;20633;-90
2021/06/04 06:39:14;;;;;;;10.30;5.87;;;20.80;99.90;;;;;;5009054;28;20666;-90
2021/06/04 06:41:42;;;;;;;6.73;6.20;;;20.90;99.90;;;;;;5007182;28;20631;-93
2021/06/04 06:44:09;;;;;;;6.07;5.47;;;21.20;99.90;;;;;;5023855;28;20634;-91
2021/06/04 06:46:44;;;;;;;6.67;6.07;;;21.30;99.90;;;;;;5028061;28;21098;-93
2021/06/04 06:49:12;;;;;;;6.27;5.70;;;21.40;99.90;;;;;;5004362;28;20670;-91
2021/06/04 06:51:40;;;;;;;6.13;5.60;;;21.60;99.90;;;;;;5010234;28;20619;-92
2021/06/04 06:54:08;;;;;;;12.77;6.97;;;22.00;99.90;;;;;;5005733;28;20634;-91
2021/06/04 06:56:36;;;;;;;6.03;5.53;;;22.20;99.90;;;;;;5003329;28;20632;-91
2021/06/04 06:59:03;;;;;;;6.13;5.53;;;22.20;99.90;;;;;;5007493;28;20664;-89
2021/06/04 07:01:31;;;;;;;5.97;5.47;;;22.10;99.90;;;;;;5003973;28;20629;-91
2021/06/04 07:03:58;;;;;;;6.10;5.60;;;22.10;99.90;;;;;;5000720;28;20961;-90
2021/06/04 07:06:27;;;;;;;5.53;5.13;;;22.10;99.90;;;;;;4997935;28;20984;-90
2021/06/04 07:08:56;;;;;;;5.43;4.97;;;22.40;99.90;;;;;;5006283;28;20666;-90
2021/06/04 07:11:25;;;;;;;5.00;4.53;;;22.50;99.90;;;;;;5012999;28;20626;-92
2021/06/04 07:13:53;;;;;;;4.90;4.60;;;22.50;99.90;;;;;;5008671;28;20973;-94
2021/06/04 07:16:23;;;;;;;4.60;4.30;;;22.40;99.90;;;;;;5008462;28;20662;-91
2021/06/04 07:18:51;;;;;;;5.70;4.30;;;22.40;99.90;;;;;;5008785;28;20639;-92
2021/06/04 07:21:20;;;;;;;6.20;4.80;;;22.50;99.90;;;;;;5018899;28;20646;-94
2021/06/04 07:23:47;;;;;;;5.30;4.80;;;22.50;99.90;;;;;;5111296;23;21320;-95
2021/06/04 07:26:16;;;;;;;5.47;4.50;;;22.40;99.90;;;;;;5061315;28;21400;-95
2021/06/04 07:28:44;;;;;;;4.57;4.23;;;22.30;99.90;;;;;;5060086;28;20654;-95
2021/06/04 07:31:13;;;;;;;4.97;4.57;;;22.30;99.90;;;;;;5063853;28;21802;-95
2021/06/04 07:33:41;;;;;;;4.93;4.63;;;22.20;99.90;;;;;;5055263;28;20650;-95
2021/06/04 07:36:13;;;;;;;5.40;4.30;;;22.20;99.90;;;;;;5047340;28;20698;-95
2021/06/04 07:38:40;;;;;;;4.83;4.43;;;22.10;99.90;;;;;;5047171;28;20651;-95
2021/06/04 07:41:08;;;;;;;4.80;4.30;;;22.10;99.90;;;;;;5034581;28;20682;-95
2021/06/04 07:43:39;;;;;;;4.83;4.40;;;22.20;99.90;;;;;;5033765;28;20662;-95
2021/06/04 07:46:08;;;;;;;4.47;4.10;;;22.30;99.90;;;;;;5024988;28;20992;-95
2021/06/04 07:48:35;;;;;;;4.70;4.20;;;22.40;99.90;;;;;;5026173;28;20896;-95
2021/06/04 07:51:04;;;;;;;5.27;4.87;;;22.50;99.90;;;;;;5025008;28;20626;-96
2021/06/04 07:53:33;;;;;;;4.73;4.30;;;22.70;99.90;;;;;;5020580;28;20655;-95
2021/06/04 07:56:01;;;;;;;5.30;4.80;;;22.80;99.90;;;;;;5022869;28;20645;-95
2021/06/04 07:58:27;;;;;;;4.90;3.47;;;23.10;99.90;;;;;;5027328;28;20635;-95
2021/06/04 08:00:55;;;;;;;3.77;3.57;;;23.00;99.90;;;;;;5024138;28;20633;-96
2021/06/04 08:03:25;;;;;;;2.77;2.57;;;23.00;99.90;;;;;;5033345;28;20735;-96
2021/06/04 08:05:52;;;;;;;7.73;2.83;;;23.20;99.90;;;;;;5029567;28;20645;-92
2021/06/04 08:08:20;;;;;;;4.07;3.67;;;23.50;99.90;;;;;;5022656;28;20702;-93
2021/06/04 08:10:47;;;;;;;4.17;3.77;;;23.50;99.90;;;;;;5022171;28;20646;-94
2021/06/04 08:13:15;;;;;;;3.27;2.90;;;23.60;99.90;;;;;;5023129;28;21205;-94
2021/06/04 08:15:44;;;;;;;4.00;3.20;;;23.80;99.90;;;;;;5025678;28;20777;-94
2021/06/04 08:18:13;;;;;;;3.50;3.20;;;24.10;99.90;;;;;;5027898;28;20641;-94
2021/06/04 08:20:40;;;;;;;2.77;2.57;;;24.30;99.90;;;;;;5024255;28;20934;-94
2021/06/04 08:23:09;;;;;;;2.77;2.57;;;24.40;99.90;;;;;;5024170;28;20669;-94
2021/06/04 08:25:40;;;;;;;2.43;2.23;;;24.60;99.90;;;;;;5025161;28;20661;-94
2021/06/04 08:28:08;;;;;;;6.20;2.73;;;24.40;99.90;;;;;;5024274;28;20717;-94
2021/06/04 08:30:34;;;;;;;3.60;2.67;;;24.30;99.90;;;;;;5024732;28;21661;-94
2021/06/04 08:33:05;;;;;;;3.47;3.27;;;24.50;99.90;;;;;;5025541;28;20702;-92
2021/06/04 08:35:33;;;;;;;2.90;2.53;;;24.70;99.90;;;;;;5021055;28;20749;-94
2021/06/04 08:38:01;;;;;;;3.40;2.70;;;24.90;99.90;;;;;;5020728;28;20663;-94
2021/06/04 08:40:30;;;;;;;4.23;3.20;;;24.90;99.90;;;;;;5022821;28;20657;-92
2021/06/04 08:43:11;;;;;;;2.97;2.70;;;25.10;99.90;;;;;;5025149;28;20642;-93
2021/06/04 08:45:42;;;;;;;3.30;2.77;;;25.10;99.90;;;;;;5025128;28;20662;-93
2021/06/04 08:48:18;;;;;;;2.93;2.63;;;25.20;99.90;;;;;;5021917;28;20632;-93
2021/06/04 08:51:00;;;;;;;5.40;2.80;;;25.20;98.70;;;;;;5024552;28;20656;-94
2021/06/04 08:53:32;;;;;;;8.63;3.17;;;25.40;99.90;;;;;;5020056;28;20984;-94
2021/06/04 08:56:03;;;;;;;4.47;3.00;;;25.60;99.90;;;;;;5022336;28;20641;-94
2021/06/04 08:58:44;;;;;;;4.10;2.93;;;25.60;99.40;;;;;;5028683;28;20614;-94
2021/06/04 09:01:14;;;;;;;6.10;2.90;;;25.80;99.70;;;;;;5029870;28;21063;-92
2021/06/04 09:03:46;;;;;;;3.50;3.20;;;25.90;99.10;;;;;;5023381;28;20682;-93
2021/06/04 09:06:27;;;;;;;7.20;3.97;;;25.90;99.10;;;;;;5020781;28;20634;-94
2021/06/04 09:08:55;;;;;;;3.60;2.77;;;26.20;99.90;;;;;;5019834;28;21430;-93
2021/06/04 09:11:28;;;;;;;2.70;2.50;;;26.60;99.30;;;;;;5028510;28;21010;-93
2021/06/04 09:13:55;;;;;;;3.43;2.97;;;27.10;98.10;;;;;;5028749;28;20649;-94
2021/06/04 09:16:32;;;;;;;3.33;3.13;;;27.00;97.80;;;;;;5030664;28;20630;-94
2021/06/04 09:19:05;;;;;;;4.50;3.60;;;27.10;97.80;;;;;;5030686;28;20771;-92
2021/06/04 09:21:41;;;;;;;5.10;3.10;;;27.40;96.70;;;;;;5026656;28;20610;-93
2021/06/04 09:24:16;;;;;;;3.27;2.90;;;27.30;96.60;;;;;;5026576;28;20671;-93
2021/06/04 09:26:42;;;;;;;5.50;3.60;;;27.20;96.90;;;;;;5029080;28;20621;-94
2021/06/04 09:29:18;;;;;;;4.30;3.30;;;27.00;97.10;;;;;;5029389;28;20666;-93
2021/06/04 09:31:48;;;;;;;4.10;3.20;;;27.20;96.60;;;;;;5026295;28;20684;-93
2021/06/04 09:34:25;;;;;;;3.27;2.67;;;27.10;96.60;;;;;;5026322;28;20670;-93
2021/06/04 09:36:56;;;;;;;4.50;2.70;;;27.30;96.60;;;;;;5026816;28;20629;-94
2021/06/04 09:39:34;;;;;;;2.77;2.57;;;27.70;95.70;;;;;;5026779;28;21201;-92
2021/06/04 09:42:15;;;;;;;2.90;2.63;;;28.10;94.50;;;;;;5031512;28;20639;-92
2021/06/04 09:44:53;;;;;;;2.53;2.33;;;27.80;95.10;;;;;;5030687;28;21089;-91
2021/06/04 09:47:29;;;;;;;3.13;2.93;;;28.10;94.20;;;;;;5039381;28;20635;-92
2021/06/04 09:49:56;;;;;;;3.07;2.87;;;27.90;93.80;;;;;;5031180;28;20607;-92
2021/06/04 09:52:34;;;;;;;2.53;2.33;;;28.10;94.00;;;;;;5024647;28;20627;-93
2021/06/04 09:55:26;;;;;;;2.67;2.37;;;28.10;93.90;;;;;;5022422;28;20634;-93
2021/06/04 09:58:19;;;;;;;3.47;2.97;;;28.10;94.10;;;;;;5018244;28;20712;-94
2021/06/04 10:00:48;;;;;;;3.43;3.13;;;28.20;93.30;;;;;;5028520;28;20619;-94
2021/06/04 10:03:30;;;;;;;4.37;3.10;;;28.50;94.20;;;;;;5029303;28;20659;-93
2021/06/04 10:06:20;;;;;;;5.30;3.00;;;28.10;95.60;;;;;;5024020;28;20622;-93
2021/06/04 10:08:51;;;;;;;3.73;2.93;;;27.90;96.70;;;;;;5025111;28;20634;-93
2021/06/04 10:11:21;;;;;;;4.33;3.10;;;27.70;97.30;;;;;;5024238;28;20691;-93
2021/06/04 10:13:51;;;;;;;3.97;3.63;;;27.70;97.70;;;;;;5030255;28;20660;-93
2021/06/04 10:16:31;;;;;;;4.40;3.93;;;27.70;97.80;;;;;;5032080;28;20638;-93
2021/06/04 10:18:58;;;;;;;8.33;3.87;;;27.70;98.10;;;;;;5024359;28;20649;-93
2021/06/04 10:21:30;;;;;;;4.47;4.10;;;27.20;99.10;;;;;;5027624;28;20665;-93
2021/06/04 10:24:01;;;;;;;6.70;4.40;;;27.20;99.80;;;;;;5023693;28;21276;-93
2021/06/04 10:26:31;;;;;;;6.33;5.73;;;27.70;98.10;;;;;;5026188;28;20665;-92
2021/06/04 10:29:12;;;;;;;5.10;4.17;;;28.40;98.00;;;;;;5024135;28;21337;-91
2021/06/04 10:31:45;;;;;;;5.77;5.10;;;28.90;96.10;;;;;;5024617;28;20634;-94
2021/06/04 10:34:37;;;;;;;5.70;3.87;;;28.50;96.90;;;;;;5025351;28;20653;-94
2021/06/04 10:37:08;;;;;;;6.50;4.50;;;28.30;97.10;;;;;;5024880;28;20646;-94
2021/06/04 10:39:43;;;;;;;5.37;4.80;;;28.00;97.40;;;;;;5025915;28;20611;-94
2021/06/04 10:42:18;;;;;;;4.50;3.97;;;27.70;97.50;;;;;;5041049;28;20626;-94
2021/06/04 10:44:53;;;;;;;6.80;4.00;;;27.60;97.40;;;;;;5044836;28;20671;-95
2021/06/04 10:47:27;;;;;;;4.30;3.90;;;28.00;97.30;;;;;;5025658;28;20626;-94
2021/06/04 10:50:15;;;;;;;4.20;3.30;;;28.40;96.90;;;;;;5024183;28;20626;-94
2021/06/04 10:52:55;;;;;;;7.10;4.20;;;28.40;97.40;;;;;;5026370;28;20666;-94
2021/06/04 10:55:37;;;;;;;4.90;4.40;;;28.40;96.80;;;;;;5031752;28;20646;-94
2021/06/04 10:58:16;;;;;;;4.23;3.83;;;28.10;96.20;;;;;;5037091;28;20669;-95
2021/06/04 11:00:47;;;;;;;3.93;3.60;;;27.40;97.90;;;;;;5047050;28;20705;-93
2021/06/04 11:03:18;;;;;;;4.73;4.00;;;27.10;98.40;;;;;;5045681;28;20713;-94
2021/06/04 11:05:52;;;;;;;5.27;3.33;;;27.00;97.60;;;;;;5047657;28;20657;-96
2021/06/04 11:08:42;;;;;;;5.50;3.50;;;26.60;98.30;;;;;;5042393;28;21216;-94
2021/06/04 11:11:24;;;;;;;9.10;2.70;;;26.00;99.40;;;;;;5024654;28;20619;-95
2021/06/04 11:14:02;;;;;;;5.50;2.43;;;25.30;99.90;;;;;;5026136;28;21343;-96
2021/06/04 11:16:32;;;;;;;5.47;3.10;;;24.20;99.90;;;;;;5027461;28;20641;-96
2021/06/04 11:19:03;;;;;;;7.30;3.23;;;23.60;99.90;;;;;;5022014;28;20650;-96
2021/06/04 11:21:38;;;;;;;14.00;5.37;;;23.30;99.90;;;;;;5021381;28;21248;-96
2021/06/04 11:24:11;;;;;;;17.70;4.43;;;23.10;99.90;;;;;;5023644;28;21041;-96
2021/06/04 11:26:42;;;;;;;11.93;5.47;;;22.80;99.90;;;;;;5026202;28;20638;-96
2021/06/04 11:29:15;;;;;;;9.93;4.60;;;22.30;99.90;;;;;;5023520;28;20749;-96
2021/06/04 11:31:56;;;;;;;9.63;4.57;;;21.90;99.90;;;;;;5030082;28;20994;-92
2021/06/04 11:34:44;;;;;;;10.70;4.87;;;21.30;99.90;;;;;;5025967;28;20657;-93
2021/06/04 11:37:14;;;;;;;8.10;3.23;;;20.90;99.90;;;;;;5025818;28;20635;-93
2021/06/04 11:39:47;;;;;;;12.20;4.30;;;21.00;99.90;;;;;;5025031;28;20646;-93
2021/06/04 11:42:20;;;;;;;9.10;4.10;;;20.70;99.90;;;;;;5022041;28;20680;-93
2021/06/04 11:44:50;;;;;;;8.00;4.03;;;20.30;99.90;;;;;;5024203;28;20655;-94
2021/06/04 11:47:38;;;;;;;9.57;5.10;;;20.10;99.90;;;;;;5024859;28;20673;-93
2021/06/04 11:50:35;;;;;;;5.80;3.97;;;20.00;99.90;;;;;;5025103;28;20793;-94
2021/06/04 11:53:35;;;;;;;4.77;3.23;;;20.10;99.90;;;;;;5021560;28;20674;-93
2021/06/04 11:56:03;;;;;;;8.03;3.80;;;20.30;99.90;;;;;;4945165;28;20674;-93
2021/06/04 12:01:38;;;;;;;7.20;3.43;;;20.40;99.90;;;;;;5122694;27;20343;-94
2021/06/04 12:04:11;;;;;;;4.00;3.33;;;20.70;99.90;;;;;;5112940;28;20629;-95
2021/06/04 12:07:02;;;;;;;4.80;4.07;;;20.70;99.90;;;;;;5114091;28;20638;-94
2021/06/04 12:09:53;;;;;;;6.83;4.27;;;20.80;99.90;;;;;;5110787;28;20652;-95
2021/06/04 12:13:02;;;;;;;4.20;3.80;;;21.00;99.90;;;;;;5089167;28;20639;-95
2021/06/04 12:15:43;;;;;;;7.97;3.90;;;21.20;99.90;;;;;;5105006;28;20741;-95
2021/06/04 12:19:02;;;;;;;4.50;4.10;;;21.20;99.90;;;;;;5105550;28;20631;-94
2021/06/04 12:21:55;;;;;;;6.27;3.50;;;21.40;99.90;;;;;;5101058;28;20656;-92
2021/06/04 12:25:02;;;;;;;4.23;3.70;;;21.40;99.90;;;;;;5105986;28;20631;-94
2021/06/04 12:27:52;;;;;;;4.33;3.50;;;21.40;99.90;;;;;;5102146;28;20646;-95
2021/06/04 12:30:52;;;;;;;7.50;3.67;;;21.80;99.90;;;;;;5103243;28;21033;-93
2021/06/04 12:33:57;;;;;;;3.70;3.27;;;21.80;99.90;;;;;;5103753;28;20718;-95
2021/06/04 12:37:02;;;;;;;2.77;2.57;;;21.60;99.90;;;;;;5097853;28;20718;-96
2021/06/04 12:39:49;;;;;;;5.03;2.80;;;21.50;99.90;;;;;;5105749;28;20773;-95
2021/06/04 12:42:29;;;;;;;6.00;3.20;;;21.70;99.90;;;;;;5104350;28;20628;-96
2021/06/04 12:45:00;;;;;;;2.87;2.67;;;21.70;99.90;;;;;;5103932;28;20642;-94
2021/06/04 12:47:31;;;;;;;3.77;2.57;;;21.60;99.90;;;;;;5112638;28;20642;-93
2021/06/04 12:50:13;;;;;;;4.80;3.20;;;21.80;99.90;;;;;;5117771;28;21186;-92
2021/06/04 12:52:44;;;;;;;3.03;2.80;;;22.10;99.90;;;;;;5108600;28;20628;-95
2021/06/04 12:55:21;;;;;;;3.00;2.70;;;22.30;99.90;;;;;;5107896;28;20607;-94
2021/06/04 12:57:48;;;;;;;2.70;2.50;;;22.60;99.90;;;;;;5109953;28;20670;-96
2021/06/04 13:00:22;;;;;;;8.40;2.83;;;23.10;99.90;;;;;;5118721;28;20714;-96
2021/06/04 13:02:55;;;;;;;4.80;3.20;;;23.00;99.90;;;;;;5106816;27;20634;-94
2021/06/04 13:05:25;;;;;;;3.07;2.70;;;23.00;99.90;;;;;;5107973;28;21221;-96
2021/06/04 13:07:55;;;;;;;3.30;3.00;;;23.30;99.90;;;;;;5112574;28;20637;-93
2021/06/04 13:10:24;;;;;;;4.50;3.20;;;23.60;99.90;;;;;;5126747;28;20639;-95
2021/06/04 13:12:56;;;;;;;3.57;2.70;;;23.80;99.90;;;;;;5114284;28;20628;-91
2021/06/04 13:15:31;;;;;;;4.70;2.50;;;23.80;99.90;;;;;;5111496;28;20600;-95
2021/06/04 13:18:03;;;;;;;4.57;3.40;;;23.70;99.90;;;;;;5103210;28;20753;-91
2021/06/04 13:20:32;;;;;;;4.43;3.27;;;23.70;99.90;;;;;;5103188;28;20715;-92
2021/06/04 13:23:12;;;;;;;3.73;3.33;;;24.10;99.90;;;;;;5094946;28;20631;-91
2021/06/04 13:25:41;;;;;;;3.13;2.50;;;24.40;99.90;;;;;;5095686;28;20650;-92
2021/06/04 13:28:15;;;;;;;3.70;2.77;;;24.50;99.90;;;;;;5095277;28;20671;-91
2021/06/04 13:30:45;;;;;;;2.73;2.50;;;24.50;99.90;;;;;;5091401;28;20678;-91
2021/06/04 13:33:16;;;;;;;2.83;2.60;;;24.80;99.90;;;;;;5092512;28;20631;-91
2021/06/04 13:35:46;;;;;;;5.13;2.60;;;25.00;99.90;;;;;;5089669;28;20669;-91
2021/06/04 13:38:20;;;;;;;4.20;3.27;;;25.70;99.90;;;;;;5089342;28;20624;-91
2021/06/04 13:40:48;;;;;;;2.83;2.53;;;26.10;99.90;;;;;;5089495;28;20645;-92
2021/06/04 13:43:28;;;;;;;4.40;3.10;;;25.60;99.90;;;;;;5093263;28;20627;-92
2021/06/04 13:45:56;;;;;;;3.60;3.40;;;25.40;99.90;;;;;;5091315;28;20621;-91
2021/06/04 13:48:32;;;;;;;4.60;3.47;;;25.20;99.90;;;;;;5095292;28;20973;-91
2021/06/04 13:51:08;;;;;;;3.00;2.80;;;25.10;99.90;;;;;;5092731;28;20689;-93
2021/06/04 13:53:48;;;;;;;3.90;3.60;;;24.70;99.90;;;;;;5089422;28;20628;-93
2021/06/04 13:56:25;;;;;;;4.73;2.67;;;25.10;99.90;;;;;;5089221;28;20622;-92
2021/06/04 13:59:30;;;;;;;4.17;3.77;;;24.80;99.90;;;;;;5089189;28;20646;-92
2021/06/04 14:02:14;;;;;;;5.13;4.63;;;24.50;99.90;;;;;;5096180;28;20636;-93
2021/06/04 14:04:43;;;;;;;6.43;4.60;;;24.50;99.90;;;;;;5095289;28;20612;-94
2021/06/04 14:07:29;;;;;;;6.90;5.10;;;24.30;99.90;;;;;;5099722;28;20628;-93
2021/06/04 14:10:31;;;;;;;6.83;6.13;;;24.20;99.90;;;;;;5089785;28;20671;-93
2021/06/04 14:13:13;;;;;;;7.67;6.87;;;23.90;99.90;;;;;;5087528;28;20659;-94
2021/06/04 14:15:53;;;;;;;5.60;5.00;;;23.80;99.90;;;;;;5090184;28;20628;-92
2021/06/04 14:18:51;;;;;;;4.90;4.50;;;23.60;99.90;;;;;;5088899;28;20743;-91
2021/06/04 14:21:35;;;;;;;7.23;5.00;;;23.40;99.90;;;;;;5083248;28;21063;-93
2021/06/04 14:24:05;;;;;;;5.97;5.40;;;23.20;99.90;;;;;;5090560;28;20629;-93
2021/06/04 14:26:47;;;;;;;6.37;5.77;;;23.10;99.90;;;;;;5101704;28;20591;-94
2021/06/04 14:29:24;;;;;;;8.73;7.90;;;23.10;99.90;;;;;;5112433;28;20696;-95
2021/06/04 14:31:53;;;;;;;6.43;5.67;;;23.10;99.90;;;;;;5111252;28;20730;-94
2021/06/04 14:34:23;;;;;;;7.30;5.43;;;23.10;99.90;;;;;;5113118;28;20628;-95
2021/06/04 14:36:49;;;;;;;5.40;4.90;;;23.10;99.90;;;;;;5110619;28;20731;-95
2021/06/04 14:39:38;;;;;;;10.33;7.23;;;23.10;99.90;;;;;;5095964;28;20669;-95
2021/06/04 14:42:08;;;;;;;6.30;4.90;;;23.00;99.90;;;;;;5095177;28;21135;-95
2021/06/04 14:44:36;;;;;;;9.47;6.87;;;23.00;99.90;;;;;;5092766;28;21183;-94